createdAt,value
2019-05-06T00:03:46.882Z,64.97
2019-05-06T00:08:49.170Z,64.83
2019-05-06T00:13:51.364Z,64.91
2019-05-06T00:18:54.242Z,64.75
2019-05-06T00:23:56.490Z,64.73
2019-05-06T00:29:01.893Z,64.80
2019-05-06T00:34:05.939Z,64.12
2019-05-06T00:39:44.443Z,63.96
2019-05-06T00:44:46.640Z,64.21
2019-05-06T00:49:48.770Z,64.02
2019-05-06T00:54:50.827Z,64.26
2019-05-06T00:59:53.862Z,64.26
2019-05-06T01:04:56.064Z,64.21
2019-05-06T01:09:58.181Z,64.04
2019-05-06T01:15:03.718Z,64.04
2019-05-06T01:20:06.918Z,64.09
2019-05-06T01:25:09.155Z,63.84
2019-05-06T01:30:13.720Z,63.83
2019-05-06T01:35:15.901Z,63.85
2019-05-06T01:40:32.203Z,64.06
2019-05-06T01:45:34.890Z,63.83
2019-05-06T01:50:37.355Z,63.71
2019-05-06T01:55:39.408Z,63.92
2019-05-06T02:00:43.607Z,64.17
2019-05-06T02:05:45.512Z,64.78
2019-05-06T02:10:47.605Z,64.38
2019-05-06T02:15:49.655Z,64.78
2019-05-06T02:20:54.541Z,65.69
2019-05-06T02:25:57.675Z,65.72
2019-05-06T02:31:28.208Z,65.45
2019-05-06T02:36:50.887Z,65.58
2019-05-06T02:41:54.933Z,66.10
2019-05-06T02:47:06.688Z,66.13
2019-05-06T02:52:08.731Z,66.55
2019-05-06T02:57:13.263Z,66.88
2019-05-06T03:02:14.837Z,67.02
2019-05-06T03:07:16.884Z,67.78
2019-05-06T03:12:19.270Z,67.17
2019-05-06T03:17:23.421Z,67.45
2019-05-06T03:22:49.955Z,67.57
2019-05-06T03:27:53.226Z,67.70
2019-05-06T03:33:31.266Z,68.17
2019-05-06T03:37:59.632Z,68.03
2019-05-06T03:43:02.745Z,68.41
2019-05-06T03:48:09.410Z,69.03
2019-05-06T03:53:14.068Z,69.15
2019-05-06T03:58:17.006Z,69.82
2019-05-06T04:03:19.069Z,69.80
2019-05-06T04:08:24.173Z,69.74
2019-05-06T04:13:27.188Z,69.90
2019-05-06T04:18:33.405Z,70.62
2019-05-06T04:23:53.775Z,70.00
2019-05-06T04:28:56.519Z,70.84
2019-05-06T04:34:09.848Z,70.55
2019-05-06T04:39:07.490Z,70.17
2019-05-06T04:44:09.702Z,71.21
2019-05-06T04:49:14.849Z,70.73
2019-05-06T04:54:15.993Z,70.95
2019-05-06T04:59:18.701Z,70.91
2019-05-06T05:04:27.725Z,71.14
2019-05-06T05:09:24.780Z,70.37
2019-05-06T05:14:52.483Z,70.20
2019-05-06T05:19:54.569Z,69.79
2019-05-06T05:24:58.653Z,69.07
2019-05-06T05:30:01.977Z,68.22
2019-05-06T05:35:04.802Z,68.16
2019-05-06T05:40:07.584Z,68.29
2019-05-06T05:45:12.717Z,67.67
2019-05-06T05:50:34.199Z,67.49
2019-05-06T05:55:36.316Z,67.58
2019-05-06T06:00:38.932Z,66.89
2019-05-06T06:05:42.782Z,65.81
2019-05-06T06:10:53.762Z,65.40
2019-05-06T06:16:13.801Z,64.70
2019-05-06T06:21:37.696Z,64.31
2019-05-06T06:26:42.961Z,63.89
2019-05-06T06:31:53.513Z,63.22
2019-05-06T06:37:15.154Z,62.84
2019-05-06T06:42:17.602Z,62.85
2019-05-06T06:47:19.767Z,61.08
2019-05-06T06:52:23.128Z,59.81
2019-05-06T06:57:42.557Z,58.80
2019-05-06T07:02:53.145Z,57.56
2019-05-06T07:07:55.476Z,57.40
2019-05-06T07:12:57.552Z,57.34
2019-05-06T07:18:02.354Z,59.51
2019-05-06T07:23:23.194Z,59.23
2019-05-06T07:28:25.405Z,57.18
2019-05-06T07:33:27.830Z,55.71
2019-05-06T07:38:32.359Z,54.82
2019-05-06T07:43:53.421Z,53.86
2019-05-06T07:48:55.550Z,55.15
2019-05-06T07:53:57.585Z,53.86
2019-05-06T07:59:08.500Z,52.16
2019-05-06T08:04:12.021Z,51.39
2019-05-06T08:09:14.467Z,50.11
2019-05-06T08:14:16.627Z,50.55
2019-05-06T08:19:18.684Z,52.29
2019-05-06T08:24:22.738Z,53.14
2019-05-06T08:29:24.966Z,52.31
2019-05-06T08:34:27.076Z,52.62
2019-05-06T08:39:32.662Z,52.62
2019-05-06T08:44:34.665Z,53.00
2019-05-06T08:49:54.816Z,52.96
2019-05-06T08:54:58.504Z,52.96
2019-05-06T09:00:02.840Z,52.51
2019-05-06T09:05:04.781Z,51.81
2019-05-06T09:10:08.902Z,51.73
2019-05-06T09:15:12.553Z,51.00
2019-05-06T09:20:14.826Z,50.29
2019-05-06T09:25:17.338Z,49.93
2019-05-06T09:30:32.995Z,50.75
2019-05-06T09:35:34.980Z,50.75
2019-05-06T09:40:37.073Z,50.22
2019-05-06T09:45:39.233Z,50.58
2019-05-06T09:50:46.089Z,51.01
2019-05-06T09:56:16.716Z,50.14
2019-05-06T10:01:19.152Z,48.22
2019-05-06T10:06:22.256Z,46.68
2019-05-06T10:11:25.860Z,45.87
2019-05-06T10:16:28.036Z,47.85
2019-05-06T10:21:32.253Z,47.64
2019-05-06T10:26:39.798Z,46.32
2019-05-06T10:31:46.846Z,46.32
2019-05-06T10:37:11.692Z,41.03
2019-05-06T10:42:13.404Z,39.23
2019-05-06T10:47:15.724Z,39.75
2019-05-06T10:52:52.050Z,39.47
2019-05-06T10:57:54.273Z,39.47
2019-05-06T11:03:15.972Z,38.16
2019-05-06T11:08:18.192Z,38.16
2019-05-06T11:13:20.277Z,38.27
2019-05-06T11:18:23.396Z,38.32
2019-05-06T11:23:25.696Z,39.64
2019-05-06T11:29:05.145Z,36.40
2019-05-06T11:34:21.998Z,36.41
2019-05-06T11:39:25.657Z,36.76
2019-05-06T11:44:28.308Z,36.76
2019-05-06T11:49:32.650Z,36.84
2019-05-06T11:54:35.200Z,37.57
2019-05-06T11:59:37.398Z,36.77
2019-05-06T12:04:41.826Z,36.31
2019-05-06T12:09:44.099Z,35.72
2019-05-06T12:14:49.659Z,37.42
2019-05-06T12:19:52.771Z,36.20
2019-05-06T12:24:55.422Z,36.20
2019-05-06T12:29:57.616Z,36.73
2019-05-06T12:34:59.868Z,35.94
2019-05-06T12:40:03.481Z,35.94
2019-05-06T12:45:38.090Z,34.36
2019-05-06T12:50:42.863Z,34.43
2019-05-06T12:55:44.536Z,35.80
2019-05-06T13:00:46.843Z,35.80
2019-05-06T13:05:49.318Z,36.60
2019-05-06T13:10:52.599Z,37.61
2019-05-06T13:15:55.126Z,38.08
2019-05-06T13:20:57.530Z,38.09
2019-05-06T13:26:01.930Z,37.71
2019-05-06T13:31:17.209Z,38.19
2019-05-06T13:36:13.185Z,38.19
2019-05-06T13:41:15.521Z,38.13
2019-05-06T13:46:23.171Z,38.01
2019-05-06T13:51:28.306Z,38.51
2019-05-06T13:56:33.091Z,38.13
2019-05-06T14:01:49.565Z,38.33
2019-05-06T14:06:52.856Z,38.53
2019-05-06T14:11:55.155Z,38.99
2019-05-06T14:16:57.339Z,38.67
2019-05-06T14:22:02.769Z,38.68
2019-05-06T14:27:07.897Z,39.63
2019-05-06T14:32:14.344Z,38.42
2019-05-06T14:37:14.205Z,38.64
2019-05-06T14:42:16.340Z,39.29
2019-05-06T14:47:26.488Z,39.68
2019-05-06T14:52:28.727Z,39.64
2019-05-06T14:57:32.297Z,39.85
2019-05-06T15:02:34.633Z,40.17
2019-05-06T15:07:36.797Z,40.01
2019-05-06T15:12:39.024Z,39.51
2019-05-06T15:17:43.083Z,39.23
2019-05-06T15:22:45.345Z,39.85
2019-05-06T15:27:47.490Z,40.26
2019-05-06T15:32:49.625Z,40.39
2019-05-06T15:37:57.880Z,40.51
2019-05-06T15:43:02.107Z,40.39
2019-05-06T15:48:04.205Z,39.65
2019-05-06T15:53:06.443Z,39.90
2019-05-06T15:58:09.557Z,41.01
2019-05-06T16:03:12.910Z,41.82
2019-05-06T16:08:15.565Z,42.32
2019-05-06T16:13:17.747Z,42.61
2019-05-06T16:18:23.210Z,42.83
2019-05-06T16:23:44.732Z,42.98
2019-05-06T16:28:47.013Z,42.10
2019-05-06T16:33:49.203Z,41.89
2019-05-06T16:38:52.561Z,42.23
2019-05-06T16:43:55.606Z,42.57
2019-05-06T16:48:57.843Z,42.94
2019-05-06T16:54:02.129Z,42.93
2019-05-06T16:59:04.562Z,43.01
2019-05-06T17:04:14.617Z,43.72
2019-05-06T17:09:21.213Z,44.59
2019-05-06T17:14:20.976Z,44.59
2019-05-06T17:19:23.218Z,44.66
2019-05-06T17:24:25.592Z,44.71
2019-05-06T17:29:45.878Z,44.94
2019-05-06T17:34:52.573Z,45.03
2019-05-06T17:40:07.014Z,45.04
2019-05-06T17:44:58.881Z,45.24
2019-05-06T17:50:02.853Z,45.22
2019-05-06T17:55:05.246Z,45.66
2019-05-06T18:00:07.592Z,45.66
2019-05-06T18:05:12.096Z,46.13
2019-05-06T18:10:14.358Z,46.13
2019-05-06T18:15:16.697Z,46.39
2019-05-06T18:20:18.762Z,46.84
2019-05-06T18:25:22.908Z,47.08
2019-05-06T18:30:33.126Z,47.10
2019-05-06T18:35:29.131Z,47.10
2019-05-06T18:40:33.159Z,47.40
2019-05-06T18:45:35.523Z,47.25
2019-05-06T18:50:37.815Z,47.22
2019-05-06T18:55:42.166Z,47.08
2019-05-06T19:00:44.287Z,47.08
2019-05-06T19:05:46.546Z,47.42
2019-05-06T19:10:48.914Z,47.48
2019-05-06T19:15:52.614Z,47.80
2019-05-06T19:20:55.062Z,47.87
2019-05-06T19:25:57.427Z,48.20
2019-05-06T19:30:59.998Z,48.21
2019-05-06T19:36:03.138Z,48.25
2019-05-06T19:41:05.915Z,48.25
2019-05-06T19:46:08.372Z,48.41
2019-05-06T19:51:10.568Z,48.60
2019-05-06T19:56:13.126Z,48.74
2019-05-06T20:01:15.323Z,48.43
2019-05-06T20:06:37.211Z,48.11
2019-05-06T20:11:45.980Z,47.73
2019-05-06T20:16:48.335Z,47.53
2019-05-06T20:21:52.601Z,47.53
2019-05-06T20:26:54.635Z,47.81
2019-05-06T20:31:56.915Z,47.90
2019-05-06T20:36:59.040Z,47.90
2019-05-06T20:42:02.903Z,48.45
2019-05-06T20:47:05.216Z,48.40
2019-05-06T20:52:07.969Z,48.65
2019-05-06T20:57:12.423Z,48.65
2019-05-06T21:02:15.200Z,48.83
2019-05-06T21:07:17.349Z,49.17
2019-05-06T21:12:19.483Z,49.19
2019-05-06T21:17:22.894Z,49.85
2019-05-06T21:22:25.223Z,50.75
2019-05-06T21:27:28.375Z,51.39
2019-05-06T21:32:32.996Z,51.73
2019-05-06T21:37:35.416Z,52.16
2019-05-06T21:42:37.656Z,52.02
2019-05-06T21:47:42.602Z,52.44
2019-05-06T21:52:44.204Z,52.52
2019-05-06T21:57:46.834Z,52.56
2019-05-06T22:02:49.154Z,53.60
2019-05-06T22:07:55.475Z,53.60
2019-05-06T22:12:57.674Z,53.24
